createdAt,value
2022-12-29T00:02:34.357Z,63.94
2022-12-29T00:07:36.082Z,64.12
2022-12-29T00:12:56.759Z,64.16
2022-12-29T00:17:58.393Z,64.26
2022-12-29T00:23:18.733Z,63.70
2022-12-29T00:28:38.934Z,64.37
2022-12-29T00:33:59.226Z,63.66
2022-12-29T00:39:23.588Z,63.32
2022-12-29T00:44:25.258Z,63.00
2022-12-29T00:49:33.052Z,62.95
2022-12-29T00:54:37.361Z,65.20
2022-12-29T00:59:40.227Z,66.16
2022-12-29T01:04:41.978Z,68.10
2022-12-29T01:10:16.073Z,69.61
2022-12-29T01:15:18.109Z,69.77
2022-12-29T01:20:20.038Z,70.93
2022-12-29T01:25:21.843Z,70.37
2022-12-29T01:30:23.459Z,71.02
2022-12-29T01:35:28.426Z,71.82
2022-12-29T01:40:30.138Z,71.27
2022-12-29T01:45:31.822Z,70.78
2022-12-29T01:50:36.615Z,71.20
2022-12-29T01:55:44.356Z,71.48
2022-12-29T02:00:46.078Z,71.44
2022-12-29T02:05:56.169Z,72.27
2022-12-29T02:10:59.319Z,72.71
2022-12-29T02:16:10.381Z,72.42
2022-12-29T02:21:25.615Z,71.76
2022-12-29T02:26:38.851Z,71.86
2022-12-29T02:31:59.157Z,71.58
2022-12-29T02:37:05.990Z,71.50
2022-12-29T02:42:15.088Z,71.65
2022-12-29T02:47:20.960Z,71.41
2022-12-29T02:52:37.154Z,71.22
2022-12-29T02:57:38.887Z,70.86
2022-12-29T03:03:02.071Z,70.52
2022-12-29T03:08:44.871Z,70.34
2022-12-29T03:14:11.996Z,68.54
2022-12-29T03:19:27.391Z,68.58
2022-12-29T03:24:32.498Z,68.70
2022-12-29T03:29:37.002Z,68.55
2022-12-29T03:34:39.653Z,67.67
2022-12-29T03:39:41.965Z,68.16
2022-12-29T03:44:44.978Z,67.03
2022-12-29T03:49:49.960Z,67.25
2022-12-29T03:54:52.094Z,66.82
2022-12-29T03:59:53.874Z,67.33
2022-12-29T04:04:55.677Z,67.06
2022-12-29T04:09:58.717Z,67.50
2022-12-29T04:15:02.329Z,67.40
2022-12-29T04:20:23.607Z,67.98
2022-12-29T04:25:26.896Z,67.88
2022-12-29T04:30:28.954Z,67.83
2022-12-29T04:35:44.682Z,68.60
2022-12-29T04:40:47.449Z,68.90
2022-12-29T04:45:51.118Z,69.15
2022-12-29T04:51:02.158Z,68.97
2022-12-29T04:56:10.491Z,69.32
2022-12-29T05:01:13.076Z,70.13
2022-12-29T05:06:15.793Z,71.12
2022-12-29T05:11:17.871Z,71.02
2022-12-29T05:16:21.611Z,71.12
2022-12-29T05:21:23.989Z,71.42
2022-12-29T05:26:26.062Z,71.39
2022-12-29T05:31:45.131Z,71.71
2022-12-29T05:36:47.366Z,72.05
2022-12-29T05:41:50.285Z,71.84
2022-12-29T05:47:03.056Z,71.38
2022-12-29T05:52:20.269Z,71.66
2022-12-29T05:57:21.926Z,71.77
2022-12-29T06:02:33.460Z,71.43
2022-12-29T06:07:35.760Z,71.55
2022-12-29T06:12:38.135Z,71.45
2022-12-29T06:17:40.463Z,71.18
2022-12-29T06:22:42.537Z,70.87
2022-12-29T06:27:44.554Z,71.05
2022-12-29T06:32:46.929Z,70.22
2022-12-29T06:37:49.548Z,71.04
2022-12-29T06:42:51.195Z,71.50
2022-12-29T06:48:15.975Z,70.79
2022-12-29T06:53:18.932Z,70.91
2022-12-29T06:58:20.529Z,70.69
2022-12-29T07:03:22.225Z,70.52
2022-12-29T07:08:23.888Z,70.71
2022-12-29T07:13:25.558Z,71.36
2022-12-29T07:18:27.145Z,71.45
2022-12-29T07:23:29.289Z,71.47
2022-12-29T07:28:31.343Z,71.45
2022-12-29T07:33:33.556Z,70.62
2022-12-29T07:38:35.536Z,71.01
2022-12-29T07:43:37.209Z,71.23
2022-12-29T07:48:57.567Z,71.13
2022-12-29T07:54:01.470Z,71.04
2022-12-29T07:59:03.182Z,70.84
2022-12-29T08:04:05.316Z,70.71
2022-12-29T08:09:15.128Z,70.17
2022-12-29T08:14:21.544Z,70.19
2022-12-29T08:19:23.168Z,69.40
2022-12-29T08:24:26.076Z,68.49
2022-12-29T08:29:28.241Z,67.93
2022-12-29T08:34:32.691Z,67.96
2022-12-29T08:39:34.884Z,68.33
2022-12-29T08:44:36.541Z,67.81
2022-12-29T08:49:38.170Z,67.85
2022-12-29T08:54:39.945Z,67.35
2022-12-29T08:59:41.664Z,67.14
2022-12-29T09:04:46.233Z,66.32
2022-12-29T09:09:48.062Z,66.49
2022-12-29T09:14:49.681Z,65.90
2022-12-29T09:19:51.559Z,65.86
2022-12-29T09:24:53.206Z,65.63
2022-12-29T09:29:54.908Z,65.34
2022-12-29T09:34:56.625Z,65.24
2022-12-29T09:39:58.249Z,65.24
2022-12-29T09:45:16.051Z,64.96
2022-12-29T09:50:17.722Z,64.35
2022-12-29T09:55:25.035Z,64.36
2022-12-29T10:00:38.282Z,64.16
2022-12-29T10:05:47.516Z,64.21
2022-12-29T10:10:57.774Z,63.25
2022-12-29T10:16:13.275Z,62.54
2022-12-29T10:21:53.710Z,61.86
2022-12-29T10:26:57.051Z,61.36
2022-12-29T10:32:06.004Z,61.48
2022-12-29T10:37:17.034Z,61.43
2022-12-29T10:42:32.385Z,60.83
2022-12-29T10:47:37.150Z,60.75
2022-12-29T10:52:39.884Z,60.73
2022-12-29T10:57:45.766Z,60.31
2022-12-29T11:03:12.758Z,60.72
2022-12-29T11:08:26.536Z,60.36
2022-12-29T11:13:38.933Z,60.32
2022-12-29T11:18:43.582Z,59.98
2022-12-29T11:23:57.381Z,60.61
2022-12-29T11:29:17.187Z,60.41
2022-12-29T11:34:21.713Z,60.49
2022-12-29T11:39:26.341Z,60.41
2022-12-29T11:44:28.290Z,60.13
2022-12-29T11:49:30.002Z,60.14
2022-12-29T11:54:34.480Z,60.10
2022-12-29T11:59:39.500Z,60.30
2022-12-29T12:04:42.130Z,60.33
2022-12-29T12:09:45.890Z,60.45
2022-12-29T12:14:55.421Z,61.29
2022-12-29T12:20:16.275Z,60.38
2022-12-29T12:25:23.171Z,60.83
2022-12-29T12:30:27.293Z,59.84
2022-12-29T12:35:37.997Z,60.16
2022-12-29T12:41:00.783Z,59.50
2022-12-29T12:46:56.645Z,59.49
2022-12-29T12:52:08.197Z,59.62
2022-12-29T12:57:27.891Z,59.39
2022-12-29T13:02:38.560Z,59.15
2022-12-29T13:07:58.871Z,59.13
2022-12-29T13:13:25.103Z,58.78
2022-12-29T13:18:45.352Z,58.43
2022-12-29T13:24:03.860Z,58.22
2022-12-29T13:29:47.653Z,58.61
2022-12-29T13:35:42.175Z,58.92
2022-12-29T13:40:47.300Z,58.97
2022-12-29T13:45:58.179Z,59.06
2022-12-29T13:51:01.103Z,59.49
2022-12-29T13:56:14.073Z,59.30
2022-12-29T14:01:29.837Z,59.62
2022-12-29T14:06:38.058Z,59.78
2022-12-29T14:11:40.967Z,59.46
2022-12-29T14:16:43.925Z,59.91
2022-12-29T14:22:00.239Z,59.72
2022-12-29T14:27:10.906Z,59.33
2022-12-29T14:32:21.667Z,59.61
2022-12-29T14:37:26.837Z,60.19
2022-12-29T14:42:30.831Z,60.58
2022-12-29T14:47:35.113Z,60.64
2022-12-29T14:53:05.132Z,60.16
2022-12-29T14:58:20.214Z,60.33
2022-12-29T15:03:30.786Z,60.33
2022-12-29T15:08:37.497Z,60.92
2022-12-29T15:13:42.719Z,61.08
2022-12-29T15:18:44.484Z,60.47
2022-12-29T15:23:46.548Z,60.91
2022-12-29T15:28:48.473Z,61.49
2022-12-29T15:33:52.292Z,62.55
2022-12-29T15:38:54.606Z,62.09
2022-12-29T15:44:16.898Z,62.00
2022-12-29T15:49:18.833Z,62.10
2022-12-29T15:54:21.908Z,62.53
2022-12-29T15:59:30.517Z,61.36
2022-12-29T16:04:48.121Z,61.92
2022-12-29T16:09:57.535Z,62.71
2022-12-29T16:15:01.460Z,63.83
2022-12-29T16:20:06.709Z,64.07
2022-12-29T16:25:20.465Z,64.63
2022-12-29T16:30:29.500Z,64.60
2022-12-29T16:35:44.029Z,64.23
2022-12-29T16:40:58.397Z,64.06
2022-12-29T16:46:00.189Z,64.53
2022-12-29T16:51:05.129Z,64.75
2022-12-29T16:56:16.467Z,64.12
2022-12-29T17:01:20.142Z,64.07
2022-12-29T17:06:23.071Z,64.46
2022-12-29T17:11:55.564Z,65.10
2022-12-29T17:17:01.143Z,65.38
2022-12-29T17:22:03.620Z,65.76
2022-12-29T17:27:05.471Z,66.46
2022-12-29T17:32:12.250Z,66.67
2022-12-29T17:37:29.185Z,66.92
2022-12-29T17:42:32.848Z,67.15
2022-12-29T17:47:34.472Z,66.88
2022-12-29T17:52:36.093Z,67.67
2022-12-29T17:57:37.730Z,68.33
2022-12-29T18:02:39.729Z,68.83
2022-12-29T18:07:41.599Z,69.13
2022-12-29T18:12:48.387Z,69.31
2022-12-29T18:17:54.542Z,69.79
2022-12-29T18:22:56.951Z,70.21
2022-12-29T18:27:58.559Z,70.90
2022-12-29T18:33:00.159Z,71.72
2022-12-29T18:38:01.887Z,72.70
2022-12-29T18:43:03.897Z,73.17
2022-12-29T18:48:05.756Z,74.25
2022-12-29T18:53:07.591Z,74.15
2022-12-29T18:58:09.285Z,73.22
2022-12-29T19:03:15.749Z,72.44
2022-12-29T19:08:17.681Z,71.73
2022-12-29T19:13:23.576Z,71.47
2022-12-29T19:18:44.064Z,71.31
2022-12-29T19:23:47.900Z,71.40
2022-12-29T19:28:49.561Z,71.31
2022-12-29T19:33:51.355Z,71.37
2022-12-29T19:38:53.956Z,71.79
2022-12-29T19:43:56.019Z,72.03
2022-12-29T19:48:59.154Z,71.63
2022-12-29T19:54:00.859Z,71.33
2022-12-29T19:59:02.553Z,71.19
2022-12-29T20:04:04.335Z,71.09
2022-12-29T20:09:06.339Z,70.50
2022-12-29T20:14:08.160Z,70.34
2022-12-29T20:19:11.027Z,70.56
2022-12-29T20:24:12.883Z,70.50
2022-12-29T20:29:16.126Z,70.13
2022-12-29T20:34:18.600Z,70.63
2022-12-29T20:39:20.559Z,70.97
2022-12-29T20:44:23.058Z,71.61
2022-12-29T20:49:25.421Z,70.98
2022-12-29T20:54:27.040Z,70.46
2022-12-29T20:59:29.191Z,69.76
2022-12-29T21:04:57.612Z,69.40
2022-12-29T21:09:53.934Z,69.51
2022-12-29T21:14:55.584Z,69.63
2022-12-29T21:19:57.239Z,70.04
2022-12-29T21:24:58.840Z,69.77
2022-12-29T21:30:01.686Z,69.75
2022-12-29T21:35:03.449Z,69.78
2022-12-29T21:40:05.737Z,69.99
2022-12-29T21:45:26.514Z,70.00
2022-12-29T21:50:28.173Z,70.31
2022-12-29T21:55:29.786Z,70.45
2022-12-29T22:00:49.740Z,70.33
2022-12-29T22:06:10.710Z,70.71
2022-12-29T22:11:31.059Z,70.90
2022-12-29T22:16:32.866Z,71.26
2022-12-29T22:21:34.495Z,71.21
2022-12-29T22:26:36.104Z,71.51
2022-12-29T22:31:37.829Z,71.56
2022-12-29T22:36:39.476Z,71.00
2022-12-29T22:41:41.094Z,71.39
2022-12-29T22:46:42.791Z,71.38
2022-12-29T22:51:44.436Z,71.78
2022-12-29T22:56:46.292Z,71.81
2022-12-29T23:01:48.105Z,71.45
2022-12-29T23:06:49.854Z,71.83
2022-12-29T23:11:53.594Z,71.15
2022-12-29T23:16:55.256Z,70.99
2022-12-29T23:21:56.878Z,71.20
2022-12-29T23:26:58.510Z,70.81
2022-12-29T23:32:00.126Z,71.21
2022-12-29T23:37:01.787Z,71.31
2022-12-29T23:42:03.600Z,71.62
2022-12-29T23:47:05.285Z,71.21
2022-12-29T23:52:06.976Z,71.04
2022-12-29T23:57:08.637Z,71.00
